• Join FlightAware (Why Join?)
  • Login
  • US Flag 
12:11AM EST


 

Airport Tracker/Info


-or-


 

Live Flight TrackerFlight Track Log ✈ SWA655 ✈ 25-Apr-2013 ✈ KSNA - KOAK

Flight Track Log - Related Links

Times and Time Zones

All times are in EDT time to prevent confusion due to time zone crossing. See the SWA655 flight status page for this flight to view local times or setup timezone preferences in your user account.

Time Position Orientation Groundspeed Altitude Reporting Facility
EDT Latitude Longitude Course Direction KTS MPH feet Rate Location/Type
02:21PM 33.6500 -117.8833 320° Northwest 138 159 1,900  Level Southern California TRACON
02:22PM 33.6000 -117.9000 196° South 153 176 3,300 1,140 Climbing Southern California TRACON
02:23PM 33.5919 -117.8978 167° South 147 169 3,500 2,220 Climbing Los Angeles Center
02:24PM 33.5289 -117.9308 204° Southwest 242 278 6,400 3,420 Climbing Los Angeles Center
02:25PM 33.4608 -117.9850 214° Southwest 280 322 10,600 3,600 Climbing Los Angeles Center
02:26PM 33.4322 -118.0883 252° West 331 381 14,000 3,840 Climbing Los Angeles Center
02:27PM 34.1368 -118.3348 320° Northwest  Level Estimated
02:27PM 33.4150 -118.2267 262° West 349 402 18,600  Level Los Angeles Center
02:28PM 33.4911 -118.2956 323° Northwest 364 419 21,900 2,940 Climbing Los Angeles Center
02:29PM 33.5939 -118.3278 345° North 378 435 24,700 2,580 Climbing Los Angeles Center
02:30PM 33.7097 -118.3636 346° North 396 456 27,300 2,340 Climbing Los Angeles Center
02:31PM 33.8225 -118.3986 346° North 412 474 29,600 2,220 Climbing Los Angeles Center
02:32PM 33.9417 -118.4361 345° North 427 491 32,000 2,280 Climbing Los Angeles Center
02:33PM 34.0472 -118.4886 338° Northwest 411 473 34,400 1,860 Climbing Los Angeles Center
02:34PM 34.1550 -118.5408 338° Northwest 416 479 35,900 1,380 Climbing Los Angeles Center
02:35PM 34.2642 -118.5944 338° Northwest 422 486 37,300 960 Climbing Los Angeles Center
02:36PM 34.3961 -118.6594 338° Northwest 427 491 38,000 300 Climbing Los Angeles Center
02:37PM 34.5064 -118.7139 338° Northwest 426 490 38,000  Level Los Angeles Center
02:38PM 34.6153 -118.7678 338° Northwest 424 488 38,000  Level Los Angeles Center
02:39PM 34.7244 -118.8231 337° Northwest 426 490 38,000  Level Los Angeles Center
02:40PM 34.8308 -118.8844 335° Northwest 425 489 38,000  Level Los Angeles Center
02:41PM 34.9250 -118.9814 320° Northwest 409 471 38,000  Level Los Angeles Center
02:42PM 35.0139 -119.0678 321° Northwest 410 472 38,000  Level Los Angeles Center
02:43PM 35.1031 -119.1544 322° Northwest 412 474 38,000  Level Los Angeles Center
02:44PM 35.2097 -119.2578 322° Northwest 409 471 38,000  Level Los Angeles Center
02:46PM 35.2989 -119.3464 321° Northwest 412 474 38,000  Level Los Angeles Center
02:47PM 35.3886 -119.4336 322° Northwest 414 476 38,000  Level Los Angeles Center
02:48PM 35.4781 -119.5217 321° Northwest 412 474 38,000  Level Los Angeles Center
02:49PM 35.5675 -119.6122 321° Northwest 416 479 38,000  Level Los Angeles Center
02:50PM 35.6728 -119.7175 321° Northwest 410 472 38,000  Level Los Angeles Center
02:51PM 35.7572 -119.8025 321° Northwest 407 468 38,000  Level Oakland Center
02:52PM 35.8444 -119.8897 321° Northwest 407 468 38,000  Level Oakland Center
02:53PM 35.9481 -119.9944 321° Northwest 407 468 38,000  Level Oakland Center
02:54PM 36.0356 -120.0808 321° Northwest 407 468 38,000  Level Oakland Center
02:55PM 36.1222 -120.1689 321° Northwest 405 466 38,000  Level Oakland Center
02:56PM 36.2083 -120.2572 320° Northwest 405 466 38,000 -480 Level Oakland Center
02:57PM 36.2936 -120.3439 321° Northwest 400 460 37,100 -1,740 Descending Oakland Center
02:58PM 36.3772 -120.4303 320° Northwest 392 451 34,500 -2,460 Descending Oakland Center
02:59PM 36.4631 -120.5172 321° Northwest 397 457 32,100 -2,400 Descending Oakland Center
03:00PM 36.5603 -120.6206 320° Northwest 386 444 29,600 -2,220 Descending Oakland Center
03:01PM 36.6406 -120.7033 320° Northwest 375 432 27,600 -1,980 Descending Oakland Center
03:02PM 36.7206 -120.7856 321° Northwest 374 430 25,600 -1,980 Descending Oakland Center
03:03PM 36.7978 -120.8681 319° Northwest 368 423 23,600 -1,980 Descending Oakland Center
03:04PM 36.8739 -120.9578 317° Northwest 363 418 21,600 -1,860 Descending Oakland Center
03:05PM 36.9453 -121.0419 317° Northwest 354 407 19,900 -1,860 Descending Oakland Center
03:06PM 37.0144 -121.1183 319° Northwest 336 387 17,800 -1,980 Descending Oakland Center
03:07PM 37.0856 -121.2022 317° Northwest 331 381 15,900 -1,800 Descending Oakland Center
03:08PM 37.1486 -121.2728 318° Northwest 323 372 14,200 -1,740 Descending Oakland Center
03:09PM 37.2125 -121.3481 317° Northwest 317 365 12,400 -1,860 Descending Oakland Center
03:10PM 37.2861 -121.4342 317° Northwest 302 348 10,400 -1,500 Descending Oakland Center
03:11PM 37.3422 -121.5011 317° Northwest 280 322 9,400 -1,080 Descending Oakland Center
03:12PM 37.3833 -121.5500 317° Northwest 257 296 8,500 -1,080 Descending Northern Cal TRACON
03:13PM 37.4333 -121.6167 313° West 262 302 7,500 -1,020 Descending Northern Cal TRACON
03:14PM 37.5000 -121.6833 322° Northwest 264 304 6,500 -780 Descending Northern Cal TRACON
03:15PM 37.5333 -121.7500 313° West 234 269 6,000 -300 Descending Northern Cal TRACON
03:16PM 37.5867 -121.7823 313° West  Level FlightAware Approximate
03:16PM 37.5333 -121.8167 270° West 221 254 6,000  Level Northern Cal TRACON
03:17PM 37.5500 -121.9000 284° West 221 254 5,200 -780 Descending Northern Cal TRACON
03:18PM 37.5500 -121.9667 270° West 217 250 4,500 -780 Descending Northern Cal TRACON
03:19PM 37.5833 -122.0333 302° West 208 239 3,700 -900 Descending Northern Cal TRACON
03:20PM 37.6167 -122.0833 310° West 166 191 2,800 -900 Descending Northern Cal TRACON
03:21PM 37.6333 -122.1167 302° West 136 157 2,100 -780 Descending Northern Cal TRACON
03:22PM 37.6461 -122.1314 318° Northwest 156 180 1,700 -720 Descending Oakland Center
03:23PM 37.6675 -122.1642 310° West 137 158 1,000 -660 Descending Oakland Center
03:24PM 37.6894 -122.1964 311° West 127 146 400 9,240 Descending Oakland Center
03:25PM 37.7094 -122.2258 311° West 119 137 20,000 19,260 Climbing Oakland Center
03:27PM 37.7167 -122.2167 270° West  Level FlightAware Approximate